Terminal Aerodrome Forecast
Issued by NWS Shreveport, LA

Home | Current Version | Previous Version | Text Only | Print | Product List | Glossary On
Versions: 1 2 3 4 5 6 7 8 9 10 11 12 13 14
003
FTUS44 KSHV 281750
TAFELD
TAF
KELD 281750Z 2818/2918 14008KT P6SM SCT040 SCT080
     FM282100 13009KT P6SM SCT050 SCT090
     FM290000 14005KT P6SM FEW050 SCT250
      TEMPO 2910/2913 5SM BR BKN015
     FM291300 13005KT 3SM BR BKN008 OVC015
     FM291500 15008KT P6SM OVC015=

USA.gov is the U.S. government's official web portal to all federal, state and local government web resources and services.